sensor_id;sensor_type;location;lat;lon;timestamp;temperature;humidity
53675;DHT22;39574;50.534;8.500;2022-07-25T00:05:04;21.0;99.9
53675;DHT22;39574;50.534;8.500;2022-07-25T00:10:07;21.0;99.9
53675;DHT22;39574;50.534;8.500;2022-07-25T00:19:45;20.8;99.9
53675;DHT22;39574;50.534;8.500;2022-07-25T00:24:49;20.7;99.9
53675;DHT22;39574;50.534;8.500;2022-07-25T00:29:58;20.6;99.9
53675;DHT22;39574;50.534;8.500;2022-07-25T00:35:00;20.5;99.9
53675;DHT22;39574;50.534;8.500;2022-07-25T00:44:31;20.4;99.9
53675;DHT22;39574;50.534;8.500;2022-07-25T00:49:42;20.4;99.9
53675;DHT22;39574;50.534;8.500;2022-07-25T00:54:46;20.2;99.9
53675;DHT22;39574;50.534;8.500;2022-07-25T00:59:59;20.1;99.9
53675;DHT22;39574;50.534;8.500;2022-07-25T01:09:40;20.0;99.9
53675;DHT22;39574;50.534;8.500;2022-07-25T01:14:41;19.9;99.9
53675;DHT22;39574;50.534;8.500;2022-07-25T01:19:55;19.9;99.9
53675;DHT22;39574;50.534;8.500;2022-07-25T01:24:55;19.9;99.9
53675;DHT22;39574;50.534;8.500;2022-07-25T01:30:00;19.8;99.9
53675;DHT22;39574;50.534;8.500;2022-07-25T01:39:26;19.9;99.9
53675;DHT22;39574;50.534;8.500;2022-07-25T01:44:27;19.9;99.9
53675;DHT22;39574;50.534;8.500;2022-07-25T01:49:42;19.9;99.9
53675;DHT22;39574;50.534;8.500;2022-07-25T01:54:53;19.9;99.9
53675;DHT22;39574;50.534;8.500;2022-07-25T02:04:23;19.7;99.9
53675;DHT22;39574;50.534;8.500;2022-07-25T02:09:24;19.7;99.9
53675;DHT22;39574;50.534;8.500;2022-07-25T02:14:39;19.7;99.9
53675;DHT22;39574;50.534;8.500;2022-07-25T02:19:50;19.7;99.9
53675;DHT22;39574;50.534;8.500;2022-07-25T02:24:52;19.6;99.9
53675;DHT22;39574;50.534;8.500;2022-07-25T02:34:32;19.4;99.9
53675;DHT22;39574;50.534;8.500;2022-07-25T02:39:38;19.2;99.9
53675;DHT22;39574;50.534;8.500;2022-07-25T02:44:50;19.1;99.9
53675;DHT22;39574;50.534;8.500;2022-07-25T02:54:19;18.9;99.9
53675;DHT22;39574;50.534;8.500;2022-07-25T02:59:31;18.8;99.9
53675;DHT22;39574;50.534;8.500;2022-07-25T03:04:44;18.7;99.9
53675;DHT22;39574;50.534;8.500;2022-07-25T03:09:47;18.7;99.9
53675;DHT22;39574;50.534;8.500;2022-07-25T03:19:27;18.7;99.9
53675;DHT22;39574;50.534;8.500;2022-07-25T03:24:31;18.7;99.9
53675;DHT22;39574;50.534;8.500;2022-07-25T03:29:43;18.7;99.9
53675;DHT22;39574;50.534;8.500;2022-07-25T03:34:45;18.8;99.9
53675;DHT22;39574;50.534;8.500;2022-07-25T03:44:13;18.8;99.9
53675;DHT22;39574;50.534;8.500;2022-07-25T03:49:23;18.8;99.9
53675;DHT22;39574;50.534;8.500;2022-07-25T03:54:38;18.8;99.9
53675;DHT22;39574;50.534;8.500;2022-07-25T03:59:42;18.7;99.9
53675;DHT22;39574;50.534;8.500;2022-07-25T04:04:43;18.7;99.9
53675;DHT22;39574;50.534;8.500;2022-07-25T04:14:22;18.6;99.9
53675;DHT22;39574;50.534;8.500;2022-07-25T04:19:36;18.5;99.9
53675;DHT22;39574;50.534;8.500;2022-07-25T04:24:39;18.5;99.9
53675;DHT22;39574;50.534;8.500;2022-07-25T04:29:40;18.6;99.9
53675;DHT22;39574;50.534;8.500;2022-07-25T04:39:07;18.7;99.9
53675;DHT22;39574;50.534;8.500;2022-07-25T04:44:08;18.7;99.9
53675;DHT22;39574;50.534;8.500;2022-07-25T04:49:23;18.8;99.9
53675;DHT22;39574;50.534;8.500;2022-07-25T04:54:23;18.8;99.9
53675;DHT22;39574;50.534;8.500;2022-07-25T04:59:34;18.8;99.9
53675;DHT22;39574;50.534;8.500;2022-07-25T05:09:02;18.8;99.9
53675;DHT22;39574;50.534;8.500;2022-07-25T05:14:15;18.7;99.9
53675;DHT22;39574;50.534;8.500;2022-07-25T05:19:16;18.8;99.9
53675;DHT22;39574;50.534;8.500;2022-07-25T05:24:18;19.0;99.9
53675;DHT22;39574;50.534;8.500;2022-07-25T05:29:20;19.2;99.9
53675;DHT22;39574;50.534;8.500;2022-07-25T05:34:38;19.5;99.9
53675;DHT22;39574;50.534;8.500;2022-07-25T05:44:00;19.6;99.9
53675;DHT22;39574;50.534;8.500;2022-07-25T05:49:02;19.8;99.9
53675;DHT22;39574;50.534;8.500;2022-07-25T05:54:10;20.1;99.9
53675;DHT22;39574;50.534;8.500;2022-07-25T05:59:14;20.4;99.9
53675;DHT22;39574;50.534;8.500;2022-07-25T06:04:27;20.7;99.9
53675;DHT22;39574;50.534;8.500;2022-07-25T06:14:09;21.0;99.9
53675;DHT22;39574;50.534;8.500;2022-07-25T06:19:13;21.3;99.9
53675;DHT22;39574;50.534;8.500;2022-07-25T06:24:24;21.7;99.9
53675;DHT22;39574;50.534;8.500;2022-07-25T06:29:25;22.0;99.9
53675;DHT22;39574;50.534;8.500;2022-07-25T06:39:07;22.3;99.9
53675;DHT22;39574;50.534;8.500;2022-07-25T06:44:12;22.6;99.9
53675;DHT22;39574;50.534;8.500;2022-07-25T06:49:25;23.0;99.9
53675;DHT22;39574;50.534;8.500;2022-07-25T06:58:54;23.3;99.9
53675;DHT22;39574;50.534;8.500;2022-07-25T07:04:06;23.6;99.9
53675;DHT22;39574;50.534;8.500;2022-07-25T07:09:09;23.8;99.9
53675;DHT22;39574;50.534;8.500;2022-07-25T07:14:24;24.0;99.9
53675;DHT22;39574;50.534;8.500;2022-07-25T07:24:05;24.4;99.9
53675;DHT22;39574;50.534;8.500;2022-07-25T07:29:06;24.7;99.9
53675;DHT22;39574;50.534;8.500;2022-07-25T07:34:07;25.0;99.9
53675;DHT22;39574;50.534;8.500;2022-07-25T07:39:09;25.3;99.9
53675;DHT22;39574;50.534;8.500;2022-07-25T07:44:22;25.5;99.9
53675;DHT22;39574;50.534;8.500;2022-07-25T07:53:43;25.8;99.9
53675;DHT22;39574;50.534;8.500;2022-07-25T07:58:52;26.1;99.9
53675;DHT22;39574;50.534;8.500;2022-07-25T08:04:03;26.5;99.9
53675;DHT22;39574;50.534;8.500;2022-07-25T08:09:05;26.9;99.9
53675;DHT22;39574;50.534;8.500;2022-07-25T08:14:18;27.4;99.9
53675;DHT22;39574;50.534;8.500;2022-07-25T08:19:19;27.9;99.9
53675;DHT22;39574;50.534;8.500;2022-07-25T08:24:21;28.2;99.9
53675;DHT22;39574;50.534;8.500;2022-07-25T08:29:22;28.5;99.9
53675;DHT22;39574;50.534;8.500;2022-07-25T08:34:23;28.8;99.9
53675;DHT22;39574;50.534;8.500;2022-07-25T08:43:51;29.6;99.9
53675;DHT22;39574;50.534;8.500;2022-07-25T08:48:51;30.2;99.9
53675;DHT22;39574;50.534;8.500;2022-07-25T08:54:03;30.5;99.9
53675;DHT22;39574;50.534;8.500;2022-07-25T08:59:05;30.7;99.9
53675;DHT22;39574;50.534;8.500;2022-07-25T09:04:18;31.0;99.9
53675;DHT22;39574;50.534;8.500;2022-07-25T09:09:28;31.4;99.9
53675;DHT22;39574;50.534;8.500;2022-07-25T09:19:08;31.5;99.9
53675;DHT22;39574;50.534;8.500;2022-07-25T09:24:09;31.7;99.9
53675;DHT22;39574;50.534;8.500;2022-07-25T09:29:21;31.8;99.9
53675;DHT22;39574;50.534;8.500;2022-07-25T09:34:32;31.9;99.9
53675;DHT22;39574;50.534;8.500;2022-07-25T09:43:52;32.1;99.9
53675;DHT22;39574;50.534;8.500;2022-07-25T09:49:03;32.2;99.9
53675;DHT22;39574;50.534;8.500;2022-07-25T09:54:07;32.6;99.9
53675;DHT22;39574;50.534;8.500;2022-07-25T09:59:19;33.2;99.2
53675;DHT22;39574;50.534;8.500;2022-07-25T10:04:25;33.5;97.0
53675;DHT22;39574;50.534;8.500;2022-07-25T10:09:25;33.6;94.5
53675;DHT22;39574;50.534;8.500;2022-07-25T10:19:05;33.2;92.6
53675;DHT22;39574;50.534;8.500;2022-07-25T10:24:06;32.8;91.6
53675;DHT22;39574;50.534;8.500;2022-07-25T10:29:12;32.4;91.6
53675;DHT22;39574;50.534;8.500;2022-07-25T10:34:26;32.5;91.8
53675;DHT22;39574;50.534;8.500;2022-07-25T10:39:26;33.0;91.5
53675;DHT22;39574;50.534;8.500;2022-07-25T10:44:27;33.4;90.6
53675;DHT22;39574;50.534;8.500;2022-07-25T10:53:53;33.4;90.1
53675;DHT22;39574;50.534;8.500;2022-07-25T10:58:57;33.5;89.6
53675;DHT22;39574;50.534;8.500;2022-07-25T11:04:13;33.4;89.0
53675;DHT22;39574;50.534;8.500;2022-07-25T11:09:22;33.6;89.3
53675;DHT22;39574;50.534;8.500;2022-07-25T11:14:23;33.6;88.2
53675;DHT22;39574;50.534;8.500;2022-07-25T11:19:24;33.8;88.8
53675;DHT22;39574;50.534;8.500;2022-07-25T11:24:36;33.7;88.5
53675;DHT22;39574;50.534;8.500;2022-07-25T11:33:57;33.4;87.2
53675;DHT22;39574;50.534;8.500;2022-07-25T11:39:09;33.4;86.1
53675;DHT22;39574;50.534;8.500;2022-07-25T11:44:28;33.5;85.4
53675;DHT22;39574;50.534;8.500;2022-07-25T11:49:27;33.4;85.2
53675;DHT22;39574;50.534;8.500;2022-07-25T11:54:27;33.2;86.2
53675;DHT22;39574;50.534;8.500;2022-07-25T11:59:29;33.0;87.5
53675;DHT22;39574;50.534;8.500;2022-07-25T12:09:08;32.8;87.1
53675;DHT22;39574;50.534;8.500;2022-07-25T12:14:10;32.8;86.4
53675;DHT22;39574;50.534;8.500;2022-07-25T12:19:17;32.7;85.6
53675;DHT22;39574;50.534;8.500;2022-07-25T12:24:16;32.2;86.4
53675;DHT22;39574;50.534;8.500;2022-07-25T12:29:29;31.7;87.4
53675;DHT22;39574;50.534;8.500;2022-07-25T12:38:59;30.2;92.7
53675;DHT22;39574;50.534;8.500;2022-07-25T12:43:59;29.0;96.5
53675;DHT22;39574;50.534;8.500;2022-07-25T12:49:00;28.2;98.8
53675;DHT22;39574;50.534;8.500;2022-07-25T12:54:11;27.7;99.9
53675;DHT22;39574;50.534;8.500;2022-07-25T12:59:16;27.7;99.9
53675;DHT22;39574;50.534;8.500;2022-07-25T13:04:17;28.2;99.9
53675;DHT22;39574;50.534;8.500;2022-07-25T13:09:26;28.7;99.9
53675;DHT22;39574;50.534;8.500;2022-07-25T13:18:44;29.6;99.9
53675;DHT22;39574;50.534;8.500;2022-07-25T13:23:57;30.4;99.9
53675;DHT22;39574;50.534;8.500;2022-07-25T13:28:58;31.1;99.9
53675;DHT22;39574;50.534;8.500;2022-07-25T13:34:00;31.6;99.9
53675;DHT22;39574;50.534;8.500;2022-07-25T13:39:11;31.5;99.9
53675;DHT22;39574;50.534;8.500;2022-07-25T13:44:13;31.1;99.9
53675;DHT22;39574;50.534;8.500;2022-07-25T13:49:16;30.9;99.9
53675;DHT22;39574;50.534;8.500;2022-07-25T13:54:28;30.9;99.9
53675;DHT22;39574;50.534;8.500;2022-07-25T13:59:30;30.9;99.9
53675;DHT22;39574;50.534;8.500;2022-07-25T14:04:30;30.9;99.9
53675;DHT22;39574;50.534;8.500;2022-07-25T14:14:00;31.0;99.9
53675;DHT22;39574;50.534;8.500;2022-07-25T14:19:12;31.3;99.9
53675;DHT22;39574;50.534;8.500;2022-07-25T14:24:17;31.9;99.9
53675;DHT22;39574;50.534;8.500;2022-07-25T14:29:28;32.4;99.1
53675;DHT22;39574;50.534;8.500;2022-07-25T14:39:01;32.8;97.4
53675;DHT22;39574;50.534;8.500;2022-07-25T14:44:01;33.3;96.2
53675;DHT22;39574;50.534;8.500;2022-07-25T14:49:12;33.5;94.6
53675;DHT22;39574;50.534;8.500;2022-07-25T14:54:19;33.3;93.7
53675;DHT22;39574;50.534;8.500;2022-07-25T14:59:28;33.1;93.4
53675;DHT22;39574;50.534;8.500;2022-07-25T15:09:13;32.6;93.3
53675;DHT22;39574;50.534;8.500;2022-07-25T15:14:19;32.2;93.7
53675;DHT22;39574;50.534;8.500;2022-07-25T15:19:34;31.9;94.3
53675;DHT22;39574;50.534;8.500;2022-07-25T15:29:01;31.8;94.7
53675;DHT22;39574;50.534;8.500;2022-07-25T15:34:02;31.8;94.7
53675;DHT22;39574;50.534;8.500;2022-07-25T15:39:02;32.1;94.6
53675;DHT22;39574;50.534;8.500;2022-07-25T15:44:03;32.4;94.5
53675;DHT22;39574;50.534;8.500;2022-07-25T15:49:03;32.5;94.7
53675;DHT22;39574;50.534;8.500;2022-07-25T15:54:15;32.4;96.0
53675;DHT22;39574;50.534;8.500;2022-07-25T15:59:21;32.1;97.0
53675;DHT22;39574;50.534;8.500;2022-07-25T16:04:30;31.6;97.7
53675;DHT22;39574;50.534;8.500;2022-07-25T16:09:32;30.8;98.4
53675;DHT22;39574;50.534;8.500;2022-07-25T16:14:35;30.1;99.1
53675;DHT22;39574;50.534;8.500;2022-07-25T16:24:04;29.7;99.5
53675;DHT22;39574;50.534;8.500;2022-07-25T16:29:15;29.3;99.8
53675;DHT22;39574;50.534;8.500;2022-07-25T16:34:17;29.1;99.9
53675;DHT22;39574;50.534;8.500;2022-07-25T16:39:31;29.0;99.9
53675;DHT22;39574;50.534;8.500;2022-07-25T16:44:36;29.0;99.9
53675;DHT22;39574;50.534;8.500;2022-07-25T16:53:44;29.2;99.9
53675;DHT22;39574;50.534;8.500;2022-07-25T16:58:46;28.6;99.9
53675;DHT22;39574;50.534;8.500;2022-07-25T17:04:03;28.0;99.9
53675;DHT22;39574;50.534;8.500;2022-07-25T17:09:15;27.3;99.9
53675;DHT22;39574;50.534;8.500;2022-07-25T17:14:19;26.8;99.9
53675;DHT22;39574;50.534;8.500;2022-07-25T17:19:20;26.6;99.9
53675;DHT22;39574;50.534;8.500;2022-07-25T17:24:35;26.5;99.9
53675;DHT22;39574;50.534;8.500;2022-07-25T17:34:13;26.5;99.9
53675;DHT22;39574;50.534;8.500;2022-07-25T17:39:19;26.6;99.9
53675;DHT22;39574;50.534;8.500;2022-07-25T17:44:32;26.6;99.9
53675;DHT22;39574;50.534;8.500;2022-07-25T17:54:01;26.5;99.9
53675;DHT22;39574;50.534;8.500;2022-07-25T17:59:12;26.4;99.9
53675;DHT22;39574;50.534;8.500;2022-07-25T18:04:17;26.3;99.9
53675;DHT22;39574;50.534;8.500;2022-07-25T18:09:30;26.1;99.9
53675;DHT22;39574;50.534;8.500;2022-07-25T18:14:33;25.8;99.9
53675;DHT22;39574;50.534;8.500;2022-07-25T18:24:00;25.6;99.9
53675;DHT22;39574;50.534;8.500;2022-07-25T18:29:00;25.4;99.9
53675;DHT22;39574;50.534;8.500;2022-07-25T18:34:02;25.2;99.9
53675;DHT22;39574;50.534;8.500;2022-07-25T18:39:14;25.1;99.9
53675;DHT22;39574;50.534;8.500;2022-07-25T18:44:28;24.9;99.9
53675;DHT22;39574;50.534;8.500;2022-07-25T18:49:30;24.7;99.9
53675;DHT22;39574;50.534;8.500;2022-07-25T18:58:58;24.6;99.9
53675;DHT22;39574;50.534;8.500;2022-07-25T19:04:10;24.6;99.9
53675;DHT22;39574;50.534;8.500;2022-07-25T19:09:10;24.7;99.9
53675;DHT22;39574;50.534;8.500;2022-07-25T19:14:24;24.5;99.9
53675;DHT22;39574;50.534;8.500;2022-07-25T19:19:25;24.4;99.9
53675;DHT22;39574;50.534;8.500;2022-07-25T19:24:27;24.2;99.9
53675;DHT22;39574;50.534;8.500;2022-07-25T19:33:56;24.1;99.9
53675;DHT22;39574;50.534;8.500;2022-07-25T19:39:07;24.0;99.9
53675;DHT22;39574;50.534;8.500;2022-07-25T19:44:12;23.9;99.9
53675;DHT22;39574;50.534;8.500;2022-07-25T19:49:23;23.9;99.9
53675;DHT22;39574;50.534;8.500;2022-07-25T19:59:06;23.8;99.9
53675;DHT22;39574;50.534;8.500;2022-07-25T20:04:12;23.7;99.9
53675;DHT22;39574;50.534;8.500;2022-07-25T20:09:23;23.7;99.9
53675;DHT22;39574;50.534;8.500;2022-07-25T20:14:24;23.6;99.9
53675;DHT22;39574;50.534;8.500;2022-07-25T20:23:45;23.5;99.9
53675;DHT22;39574;50.534;8.500;2022-07-25T20:28:52;23.4;99.9
53675;DHT22;39574;50.534;8.500;2022-07-25T20:33:52;23.4;99.9
53675;DHT22;39574;50.534;8.500;2022-07-25T20:39:03;23.4;99.9
53675;DHT22;39574;50.534;8.500;2022-07-25T20:44:08;23.4;99.9
53675;DHT22;39574;50.534;8.500;2022-07-25T20:49:18;23.6;99.9
53675;DHT22;39574;50.534;8.500;2022-07-25T20:54:19;23.8;99.9
53675;DHT22;39574;50.534;8.500;2022-07-25T21:04:02;23.8;99.9
53675;DHT22;39574;50.534;8.500;2022-07-25T21:09:05;23.8;99.9
53675;DHT22;39574;50.534;8.500;2022-07-25T21:14:15;23.7;99.9
53675;DHT22;39574;50.534;8.500;2022-07-25T21:19:20;23.7;99.9
53675;DHT22;39574;50.534;8.500;2022-07-25T21:29:00;23.5;99.9
53675;DHT22;39574;50.534;8.500;2022-07-25T21:34:03;23.4;99.9
53675;DHT22;39574;50.534;8.500;2022-07-25T21:39:17;23.2;99.9
53675;DHT22;39574;50.534;8.500;2022-07-25T21:44:20;23.2;99.9
53675;DHT22;39574;50.534;8.500;2022-07-25T21:53:32;23.2;99.9
53675;DHT22;39574;50.534;8.500;2022-07-25T21:58:47;23.2;99.9
53675;DHT22;39574;50.534;8.500;2022-07-25T22:03:47;23.2;99.9
53675;DHT22;39574;50.534;8.500;2022-07-25T22:08:58;23.1;99.9
53675;DHT22;39574;50.534;8.500;2022-07-25T22:14:12;23.0;99.9
53675;DHT22;39574;50.534;8.500;2022-07-25T22:19:16;22.8;99.9
53675;DHT22;39574;50.534;8.500;2022-07-25T22:28:45;22.6;99.9
53675;DHT22;39574;50.534;8.500;2022-07-25T22:33:45;22.5;99.9
53675;DHT22;39574;50.534;8.500;2022-07-25T22:38:47;22.4;99.9
53675;DHT22;39574;50.534;8.500;2022-07-25T22:43:55;22.3;99.9
53675;DHT22;39574;50.534;8.500;2022-07-25T22:48:55;22.2;99.9
53675;DHT22;39574;50.534;8.500;2022-07-25T22:53:58;22.2;99.9
53675;DHT22;39574;50.534;8.500;2022-07-25T22:59:09;22.1;99.9
53675;DHT22;39574;50.534;8.500;2022-07-25T23:04:12;22.0;99.9
53675;DHT22;39574;50.534;8.500;2022-07-25T23:13:51;21.9;99.9
53675;DHT22;39574;50.534;8.500;2022-07-25T23:18:56;21.9;99.9
53675;DHT22;39574;50.534;8.500;2022-07-25T23:23:56;21.8;99.9
53675;DHT22;39574;50.534;8.500;2022-07-25T23:29:06;21.8;99.9
53675;DHT22;39574;50.534;8.500;2022-07-25T23:38:39;21.8;99.9
53675;DHT22;39574;50.534;8.500;2022-07-25T23:43:41;21.8;99.9
53675;DHT22;39574;50.534;8.500;2022-07-25T23:48:53;21.7;99.9
53675;DHT22;39574;50.534;8.500;2022-07-25T23:53:56;21.6;99.9
53675;DHT22;39574;50.534;8.500;2022-07-25T23:59:08;21.3;99.9
